»·PEaware :: N904JD MMML-KNUC

N904JD :: MMML-KNUC

FLIGHT INFORMATION

Flight Status: Arrived
Operator: Privately registered:
United States
More flights under this callsign
Pilot: Janevah W. (242)
Aircraft: CESSNA 172 SKYHAWK
(C172)
More flights by this aircraft type
Origin: MMML Gen Rodolfo Sanchez Taboada
Mexico
Destination: KNUC San Clemente I NALF
United States
More flights between these airports :: More routes between these airports
Route: +MDL V137 IPL V66 MZB
File this flight plan on PilotEdge
Remarks: AH / V /
Altitude:
(Current/Filed)
6,000ft
Speed:
(Current/Filed)
112kts
Departed: 18-Mar-14 09:26 PM
Arrived: 18-Mar-14 10:56 PM
Distance/Time
Traveled:
170nm/1:30
Distance/Time
To Go:
Arrived

Flight Plot

Page will automatically refresh every two minutes.

Flight plan parsing failed; only flown route is shown


Map Options




Map Legend


Flown Route
Filed Route
Departure Airport
Arrival Airport
Navaid (VOR, NDB)
Fix

Horizontal Profiles

Position Reports

Time Latitude Longitude Heading Altitude Ground
Speed
18-Mar-14 21:10 32.627978 -115.246254 199 77ft 0kts
18-Mar-14 21:11 32.627978 -115.246254 199 77ft 0kts
18-Mar-14 21:12 32.627977 -115.246254 199 77ft 0kts
18-Mar-14 21:13 32.627977 -115.246255 199 77ft 0kts
18-Mar-14 21:14 32.627977 -115.246255 199 77ft 0kts
18-Mar-14 21:15 32.627983 -115.246364 354 77ft 5kts
18-Mar-14 21:16 32.629734 -115.243617 80 77ft 23kts
18-Mar-14 21:17 32.629997 -115.241809 79 77ft 0kts
18-Mar-14 21:18 32.629998 -115.241804 79 77ft 0kts
18-Mar-14 21:19 32.630002 -115.241778 79 77ft 5kts
18-Mar-14 21:20 32.634567 -115.250514 294 286ft 72kts
18-Mar-14 21:21 32.644278 -115.273029 287 1074ft 79kts
18-Mar-14 21:22 32.652231 -115.299940 294 1677ft 93kts
18-Mar-14 21:23 32.663917 -115.328577 297 2193ft 97kts
18-Mar-14 21:24 32.677484 -115.356457 300 2691ft 96kts
18-Mar-14 21:25 32.690796 -115.383911 298 3184ft 95kts
18-Mar-14 21:26 32.703577 -115.411635 298 3686ft 96kts
18-Mar-14 21:27 32.716532 -115.439391 298 4178ft 96kts
18-Mar-14 21:28 32.729359 -115.466817 298 4669ft 94kts
18-Mar-14 21:29 32.741976 -115.493829 298 5162ft 91kts
18-Mar-14 21:30 32.750661 -115.516335 267 5568ft 89kts
18-Mar-14 21:31 32.746320 -115.542609 294 6029ft 90kts
18-Mar-14 21:32 32.750719 -115.576190 269 6026ft 111kts
18-Mar-14 21:33 32.751907 -115.613446 272 6019ft 113kts
18-Mar-14 21:34 32.753061 -115.651074 271 6018ft 113kts
18-Mar-14 21:35 32.754170 -115.688617 271 6018ft 113kts
18-Mar-14 21:36 32.755270 -115.726282 271 6018ft 113kts
18-Mar-14 21:37 32.756371 -115.763832 271 6018ft 113kts
18-Mar-14 21:38 32.757477 -115.801409 271 6018ft 113kts
18-Mar-14 21:39 32.758590 -115.839207 271 6018ft 113kts
18-Mar-14 21:40 32.759666 -115.876773 271 6018ft 113kts
18-Mar-14 21:41 32.760812 -115.914468 271 6018ft 114kts
18-Mar-14 21:42 32.761927 -115.952027 271 6018ft 113kts
18-Mar-14 21:43 32.763017 -115.989455 271 6018ft 113kts
18-Mar-14 21:44 32.764113 -116.027157 271 6018ft 114kts
18-Mar-14 21:45 32.765212 -116.064611 271 6018ft 114kts
18-Mar-14 21:46 32.766250 -116.099795 271 6018ft 113kts
18-Mar-14 21:47 32.767434 -116.139884 271 6018ft 114kts
18-Mar-14 21:48 32.768546 -116.177595 271 6018ft 114kts
18-Mar-14 21:49 32.769640 -116.215697 271 6018ft 114kts
18-Mar-14 21:50 32.770666 -116.249970 271 6383ft 98kts
18-Mar-14 21:51 32.771638 -116.281352 271 6762ft 93kts
18-Mar-14 21:52 32.772580 -116.311974 271 7151ft 91kts
18-Mar-14 21:53 32.773472 -116.341783 271 7543ft 89kts
18-Mar-14 21:54 32.774323 -116.371141 271 7938ft 88kts
18-Mar-14 21:55 32.775143 -116.399984 270 8329ft 87kts
18-Mar-14 21:56 32.769338 -116.430050 239 8430ft 105kts
18-Mar-14 21:57 32.754259 -116.460876 239 8419ft 110kts
18-Mar-14 21:58 32.738887 -116.492598 242 8418ft 110kts
18-Mar-14 21:59 32.732590 -116.527740 272 8419ft 110kts
18-Mar-14 22:00 32.740527 -116.562907 293 8418ft 110kts
18-Mar-14 22:01 32.754203 -116.595536 294 8418ft 110kts
18-Mar-14 22:02 32.763831 -116.630164 279 8418ft 110kts
18-Mar-14 22:03 32.764759 -116.666637 264 8418ft 110kts
18-Mar-14 22:04 32.760465 -116.702846 261 8418ft 110kts
18-Mar-14 22:05 32.758295 -116.763008 274 8418ft 110kts
18-Mar-14 22:06 32.766022 -116.835205 274 8418ft 110kts
18-Mar-14 22:07 32.768177 -116.907709 271 8418ft 110kts
18-Mar-14 22:08 32.771271 -116.979707 273 8418ft 110kts
18-Mar-14 22:09 32.774593 -117.052899 272 8418ft 110kts
18-Mar-14 22:10 32.777804 -117.125691 272 8418ft 110kts
18-Mar-14 22:11 32.781014 -117.198427 272 8418ft 110kts
18-Mar-14 22:12 32.764256 -117.262957 255 8422ft 109kts
18-Mar-14 22:13 32.761473 -117.336373 273 8028ft 111kts
18-Mar-14 22:14 32.767484 -117.371580 309 8035ft 111kts
18-Mar-14 22:15 32.792115 -117.393664 325 8020ft 111kts
18-Mar-14 22:16 32.812201 -117.420121 299 8023ft 111kts
18-Mar-14 22:17 32.824399 -117.453910 291 8019ft 111kts
18-Mar-14 22:18 32.834363 -117.488769 285 8018ft 111kts
18-Mar-14 22:19 32.841252 -117.524548 280 8018ft 111kts
18-Mar-14 22:20 32.847281 -117.560698 281 8018ft 111kts
18-Mar-14 22:21 32.853765 -117.595926 282 7982ft 113kts
18-Mar-14 22:22 32.861279 -117.633443 283 7977ft 111kts
18-Mar-14 22:23 32.868503 -117.669230 283 7978ft 111kts
18-Mar-14 22:24 32.875545 -117.705161 282 7978ft 111kts
18-Mar-14 22:25 32.882433 -117.741138 282 7978ft 111kts
18-Mar-14 22:26 32.889290 -117.777036 282 7978ft 111kts
18-Mar-14 22:27 32.896230 -117.813021 282 7978ft 111kts
18-Mar-14 22:28 32.903211 -117.848882 283 7978ft 111kts
18-Mar-14 22:29 32.910632 -117.886877 283 7653ft 126kts
18-Mar-14 22:30 32.918705 -117.928345 283 7158ft 129kts
18-Mar-14 22:31 32.926792 -117.970092 283 6660ft 129kts
18-Mar-14 22:32 32.934890 -118.012013 283 6159ft 129kts
18-Mar-14 22:33 32.942689 -118.052396 282 5963ft 117kts
18-Mar-14 22:34 32.949854 -118.089466 282 5968ft 114kts
18-Mar-14 22:35 32.956999 -118.126334 283 5958ft 114kts
18-Mar-14 22:36 32.964116 -118.163008 283 5969ft 113kts
18-Mar-14 22:37 32.971822 -118.202613 283 5472ft 120kts
18-Mar-14 22:38 32.979294 -118.241002 282 4967ft 118kts
18-Mar-14 22:39 32.986687 -118.279247 282 4469ft 118kts
18-Mar-14 22:40 32.994065 -118.317645 282 3969ft 118kts
18-Mar-14 22:41 33.001436 -118.355957 282 3471ft 118kts
18-Mar-14 22:42 33.008779 -118.393992 282 3057ft 114kts
18-Mar-14 22:43 33.014795 -118.425070 282 2800ft 112kts
18-Mar-14 22:44 33.022048 -118.462454 283 2363ft 118kts
18-Mar-14 22:45 33.030233 -118.500572 287 1834ft 120kts
18-Mar-14 22:46 33.038779 -118.533841 293 1463ft 83kts
18-Mar-14 22:47 33.035054 -118.555256 242 695ft 57kts
18-Mar-14 22:48 33.026927 -118.576664 246 242ft 75kts
18-Mar-14 22:49 33.020165 -118.595556 248 185ft 56kts
18-Mar-14 22:50 33.019232 -118.596157 158 185ft 9kts
18-Mar-14 22:51 33.020425 -118.590690 66 185ft 32kts
18-Mar-14 22:52 33.020001 -118.585257 215 185ft 14kts
18-Mar-14 22:53 33.019552 -118.586323 70 185ft 0kts
18-Mar-14 22:54 33.019552 -118.586323 70 185ft 0kts
18-Mar-14 22:55 33.019552 -118.586323 70 185ft 0kts

Navigation Log

Ident Type
Flight plan parsing failed, navigation log unavailable